Time;durP1;ratioP1;P1;durP2;ratioP2;P2;SDS_P1;SDS_P2;PMS_P1;PMS_P2;Temp;Humidity;BMP_temperature;BMP_pressure;BME280_temperature;BME280_humidity;BME280_pressure;Samples;Min_cycle;Max_cycle;Signal;HPM_P1;HPM_P2
2023/01/06 00:01:10;;;;;;;4.25;0.93;;;16.90;98.60;;;;;;5073720;28;20358;-66
2023/01/06 00:03:36;;;;;;;2.65;0.85;;;16.50;97.40;;;;;;5073622;28;20044;-65
2023/01/06 00:06:03;;;;;;;4.78;0.70;;;16.50;96.60;;;;;;5072615;28;20031;-65
2023/01/06 00:08:28;;;;;;;3.42;1.15;;;16.50;95.80;;;;;;5072289;28;20527;-65
2023/01/06 00:10:54;;;;;;;4.13;0.90;;;16.40;95.50;;;;;;5071657;28;20033;-64
2023/01/06 00:13:20;;;;;;;3.72;0.73;;;16.40;95.40;;;;;;5072823;28;20032;-65
2023/01/06 00:15:46;;;;;;;3.55;0.70;;;16.40;95.10;;;;;;5071396;28;20075;-65
2023/01/06 00:18:12;;;;;;;1.92;0.40;;;16.30;95.00;;;;;;5072963;28;20520;-67
2023/01/06 00:20:37;;;;;;;2.88;0.93;;;16.40;94.90;;;;;;5073091;28;20539;-65
2023/01/06 00:23:03;;;;;;;3.45;1.00;;;16.40;94.80;;;;;;5071831;28;20020;-65
2023/01/06 00:25:28;;;;;;;4.20;0.68;;;16.40;94.70;;;;;;5072698;28;20160;-65
2023/01/06 00:27:54;;;;;;;3.03;0.77;;;16.30;94.70;;;;;;5073112;28;20021;-65
2023/01/06 00:30:20;;;;;;;5.07;0.90;;;16.30;94.90;;;;;;5072980;28;20078;-64
2023/01/06 00:32:45;;;;;;;2.25;0.60;;;16.30;94.80;;;;;;5073077;28;20401;-65
2023/01/06 00:35:11;;;;;;;3.03;0.90;;;16.20;94.90;;;;;;5072800;28;20031;-65
2023/01/06 00:37:36;;;;;;;2.55;0.82;;;16.20;94.80;;;;;;5072872;28;20056;-65
2023/01/06 00:40:02;;;;;;;4.22;1.15;;;16.20;94.80;;;;;;5073026;28;20077;-65
2023/01/06 00:42:28;;;;;;;6.50;0.90;;;16.30;94.70;;;;;;5072889;28;20063;-64
2023/01/06 00:44:53;;;;;;;5.28;1.00;;;16.20;94.70;;;;;;5072855;28;20424;-65
2023/01/06 00:47:19;;;;;;;3.88;0.90;;;16.10;94.80;;;;;;5072924;28;20531;-65
2023/01/06 00:49:45;;;;;;;3.55;0.90;;;16.20;94.80;;;;;;5072694;28;20107;-65
2023/01/06 00:52:11;;;;;;;3.53;0.88;;;16.20;94.70;;;;;;5072862;28;20024;-66
2023/01/06 00:54:36;;;;;;;5.90;1.05;;;16.10;94.70;;;;;;5072878;28;20071;-64
2023/01/06 00:57:04;;;;;;;4.85;1.00;;;16.20;94.80;;;;;;5072914;28;20035;-65
2023/01/06 00:59:29;;;;;;;3.80;1.33;;;16.10;94.90;;;;;;5071275;28;20442;-64
2023/01/06 01:01:56;;;;;;;4.05;0.80;;;16.00;95.00;;;;;;5072706;28;20473;-65
2023/01/06 01:04:23;;;;;;;4.28;0.90;;;16.20;94.90;;;;;;5072385;28;20048;-65
2023/01/06 01:06:51;;;;;;;3.55;0.65;;;16.20;95.10;;;;;;5072810;28;20485;-64
2023/01/06 01:09:22;;;;;;;2.10;0.73;;;16.10;95.10;;;;;;5072439;28;20029;-64
2023/01/06 01:14:33;;;;;;;3.15;0.70;;;16.00;95.00;;;;;;5072428;28;20293;-65
2023/01/06 01:16:59;;;;;;;3.42;0.73;;;16.10;94.80;;;;;;5072470;28;20023;-66
2023/01/06 01:19:25;;;;;;;3.38;0.68;;;16.00;94.90;;;;;;5072524;28;20037;-65
2023/01/06 01:21:51;;;;;;;4.57;0.82;;;16.10;94.80;;;;;;5072734;28;20016;-65
2023/01/06 01:24:17;;;;;;;4.85;0.70;;;16.10;94.60;;;;;;5072264;28;20078;-65
2023/01/06 01:26:42;;;;;;;2.65;0.80;;;16.00;94.70;;;;;;5072451;28;20377;-63
2023/01/06 01:29:13;;;;;;;3.53;0.80;;;15.90;94.80;;;;;;5072555;28;20021;-65
2023/01/06 01:31:39;;;;;;;5.90;0.98;;;16.00;94.80;;;;;;5072561;28;20056;-64
2023/01/06 01:34:04;;;;;;;6.20;1.10;;;16.00;94.70;;;;;;5072215;28;20056;-65
2023/01/06 01:36:30;;;;;;;4.68;0.90;;;16.00;94.80;;;;;;5072676;28;20079;-65
2023/01/06 01:38:57;;;;;;;3.53;1.00;;;16.00;94.80;;;;;;5076155;28;20032;-64
2023/01/06 01:41:23;;;;;;;5.38;0.70;;;16.00;94.80;;;;;;5076403;28;20032;-65
2023/01/06 01:44:01;;;;;;;4.63;1.17;;;15.90;94.80;;;;;;5076437;28;20064;-65
2023/01/06 01:46:33;;;;;;;4.18;1.20;;;15.90;94.80;;;;;;5076085;28;20056;-65
2023/01/06 01:49:10;;;;;;;4.22;0.88;;;15.90;94.90;;;;;;5075049;28;20029;-67
2023/01/06 01:51:40;;;;;;;3.53;1.13;;;15.90;95.10;;;;;;5063807;28;20017;-65
2023/01/06 01:54:11;;;;;;;2.65;0.80;;;16.00;94.90;;;;;;5076035;28;20040;-66
2023/01/06 01:56:41;;;;;;;3.92;0.90;;;16.00;94.90;;;;;;5075912;28;20389;-67
2023/01/06 01:59:20;;;;;;;2.47;0.73;;;15.90;95.00;;;;;;5075840;28;20040;-65
2023/01/06 02:01:47;;;;;;;2.10;0.52;;;16.00;95.90;;;;;;5075431;28;20074;-64
2023/01/06 02:04:13;;;;;;;2.60;0.73;;;16.00;95.60;;;;;;5075875;28;20059;-64
2023/01/06 02:06:40;;;;;;;2.75;0.55;;;16.00;95.50;;;;;;5076095;28;20028;-67
2023/01/06 02:09:19;;;;;;;4.10;0.80;;;15.80;95.30;;;;;;5075638;28;20033;-65
2023/01/06 02:11:49;;;;;;;1.50;0.60;;;15.80;95.40;;;;;;5075715;28;20021;-66
2023/01/06 02:14:19;;;;;;;2.88;0.60;;;15.80;95.30;;;;;;5075694;28;20028;-66
2023/01/06 02:17:09;;;;;;;4.28;0.95;;;15.80;95.20;;;;;;5075705;28;20082;-64
2023/01/06 02:20:05;;;;;;;4.32;0.85;;;15.80;95.30;;;;;;5075550;28;20036;-65
2023/01/06 02:22:34;;;;;;;2.10;0.60;;;15.80;95.30;;;;;;5075646;28;20020;-64
2023/01/06 02:25:46;;;;;;;2.78;0.70;;;15.90;95.70;;;;;;5075553;28;20032;-64
2023/01/06 02:28:46;;;;;;;9.07;1.00;;;15.90;95.50;;;;;;5074474;28;20147;-66
2023/01/06 02:31:46;;;;;;;3.35;0.40;;;15.90;95.50;;;;;;5075270;28;20121;-67
2023/01/06 02:34:31;;;;;;;2.33;0.50;;;15.80;95.80;;;;;;5075648;28;20024;-65
2023/01/06 02:37:34;;;;;;;3.00;0.85;;;15.80;95.60;;;;;;5075241;28;20021;-66
2023/01/06 02:40:20;;;;;;;1.85;0.63;;;15.80;95.70;;;;;;5075266;28;20041;-66
2023/01/06 02:43:12;;;;;;;3.53;0.50;;;15.80;95.60;;;;;;5075400;28;20052;-66
2023/01/06 02:46:02;;;;;;;2.17;0.80;;;15.90;95.70;;;;;;5073566;28;20036;-66
2023/01/06 02:49:03;;;;;;;3.33;0.50;;;15.70;95.80;;;;;;5074662;28;20104;-66
2023/01/06 02:51:42;;;;;;;2.15;0.40;;;15.80;95.90;;;;;;5075038;28;20023;-65
2023/01/06 02:54:14;;;;;;;4.78;0.50;;;15.80;96.20;;;;;;5075120;28;20057;-65
2023/01/06 02:56:49;;;;;;;3.60;0.55;;;15.80;96.00;;;;;;5075014;28;20416;-66
2023/01/06 02:59:29;;;;;;;3.08;0.70;;;15.80;95.70;;;;;;5074701;28;20102;-65
2023/01/06 03:01:58;;;;;;;3.28;0.65;;;15.80;95.80;;;;;;5074918;28;20532;-66
2023/01/06 03:04:39;;;;;;;2.95;0.73;;;15.80;95.60;;;;;;5074696;28;20514;-66
2023/01/06 03:07:06;;;;;;;1.58;0.43;;;15.60;95.70;;;;;;5074845;28;20020;-65
2023/01/06 03:09:37;;;;;;;3.33;0.60;;;15.60;95.90;;;;;;5074675;28;20025;-66
2023/01/06 03:12:11;;;;;;;2.42;0.80;;;15.70;95.80;;;;;;5074916;28;20079;-65
2023/01/06 03:14:45;;;;;;;2.67;0.60;;;15.80;95.70;;;;;;5074528;28;20032;-65
2023/01/06 03:17:11;;;;;;;1.05;0.30;;;15.70;95.60;;;;;;5074613;28;20024;-65
2023/01/06 03:19:37;;;;;;;4.47;0.60;;;15.70;95.70;;;;;;5074567;28;20036;-66
2023/01/06 03:22:05;;;;;;;1.88;0.80;;;15.80;96.00;;;;;;5074472;28;20082;-66
2023/01/06 03:24:30;;;;;;;1.83;0.65;;;15.80;95.80;;;;;;5074501;28;20392;-66
2023/01/06 03:26:57;;;;;;;2.50;0.80;;;15.70;95.60;;;;;;5074365;28;20062;-66
2023/01/06 03:29:23;;;;;;;3.47;0.60;;;15.70;95.80;;;;;;5073173;28;20025;-65
2023/01/06 03:32:10;;;;;;;1.23;0.32;;;15.70;95.90;;;;;;5073042;28;20350;-66
2023/01/06 03:34:49;;;;;;;1.90;0.65;;;15.70;95.80;;;;;;5074357;28;20035;-65
2023/01/06 03:37:20;;;;;;;2.95;0.65;;;15.60;96.00;;;;;;5074188;28;20017;-66
2023/01/06 03:39:58;;;;;;;2.85;0.55;;;15.60;95.90;;;;;;5074072;28;20035;-66
2023/01/06 03:45:52;;;;;;;2.85;0.50;;;15.60;96.20;;;;;;5074163;28;20147;-64
2023/01/06 03:48:50;;;;;;;2.22;0.50;;;15.60;95.80;;;;;;5074574;28;20047;-65
2023/01/06 03:51:28;;;;;;;1.20;0.50;;;15.60;95.80;;;;;;5074052;28;20052;-66
2023/01/06 03:54:06;;;;;;;1.30;0.50;;;15.60;95.40;;;;;;5073994;28;20100;-65
2023/01/06 03:56:41;;;;;;;1.77;0.60;;;15.50;95.70;;;;;;5073583;28;20032;-66
2023/01/06 03:59:12;;;;;;;1.88;0.28;;;15.60;95.60;;;;;;5073681;28;20040;-66
2023/01/06 04:01:42;;;;;;;2.13;0.45;;;15.50;95.70;;;;;;5072713;28;20025;-66
2023/01/06 04:04:08;;;;;;;1.83;0.30;;;15.50;95.80;;;;;;5073898;28;20078;-67
2023/01/06 04:06:33;;;;;;;1.83;0.30;;;15.40;95.60;;;;;;5073365;28;20098;-65
2023/01/06 04:08:59;;;;;;;1.08;0.30;;;15.60;95.40;;;;;;5073616;28;20119;-65
2023/01/06 04:14:09;;;;;;;1.83;0.30;;;15.50;95.40;;;;;;5073738;28;20098;-67
2023/01/06 04:16:34;;;;;;;2.70;0.40;;;15.60;95.40;;;;;;5073336;28;20028;-66
2023/01/06 04:19:00;;;;;;;1.50;0.40;;;15.50;95.50;;;;;;5073171;28;20492;-66
2023/01/06 04:21:25;;;;;;;1.60;0.30;;;15.60;95.40;;;;;;5073537;28;20070;-67
2023/01/06 04:23:51;;;;;;;2.50;0.50;;;15.50;95.60;;;;;;5073522;28;20411;-66
2023/01/06 04:26:16;;;;;;;1.85;0.57;;;15.50;96.00;;;;;;5073225;28;20449;-66
2023/01/06 04:28:42;;;;;;;1.95;0.40;;;15.50;96.20;;;;;;5073166;28;20055;-66
2023/01/06 04:31:08;;;;;;;1.45;0.28;;;15.50;95.90;;;;;;5073067;28;20082;-66
2023/01/06 04:33:34;;;;;;;1.33;0.30;;;15.50;95.80;;;;;;5073103;28;20032;-67
2023/01/06 04:36:00;;;;;;;2.42;0.30;;;15.50;95.70;;;;;;5073268;28;20377;-65
2023/01/06 04:38:25;;;;;;;1.33;0.22;;;15.50;95.70;;;;;;5073063;28;20489;-64
2023/01/06 04:40:51;;;;;;;1.10;0.30;;;15.50;95.90;;;;;;5072526;28;20033;-65
2023/01/06 04:43:17;;;;;;;1.20;0.30;;;15.50;95.60;;;;;;5072871;28;20035;-65
2023/01/06 04:45:43;;;;;;;1.65;0.40;;;15.50;95.70;;;;;;5072903;28;20094;-65
2023/01/06 04:48:12;;;;;;;1.83;0.40;;;15.50;95.80;;;;;;5072970;28;20012;-65
2023/01/06 04:50:38;;;;;;;0.93;0.40;;;15.50;95.70;;;;;;5072651;28;20058;-66
2023/01/06 04:53:05;;;;;;;1.58;0.40;;;15.40;95.70;;;;;;5072975;28;20024;-65
2023/01/06 04:55:31;;;;;;;1.08;0.28;;;15.30;96.30;;;;;;5072744;28;20029;-64
2023/01/06 04:57:57;;;;;;;2.72;0.40;;;15.40;95.80;;;;;;5072730;28;20021;-64
2023/01/06 05:00:22;;;;;;;1.40;0.45;;;15.40;95.90;;;;;;5072864;28;20029;-65
2023/01/06 05:02:48;;;;;;;2.22;0.50;;;15.40;96.00;;;;;;5072485;28;20055;-66
2023/01/06 05:05:15;;;;;;;2.75;0.30;;;15.30;96.10;;;;;;5072744;28;20035;-64
2023/01/06 05:07:41;;;;;;;1.88;0.20;;;15.40;96.00;;;;;;5072592;28;20044;-64
2023/01/06 05:10:08;;;;;;;0.63;0.13;;;15.50;96.50;;;;;;5072290;28;20052;-64
2023/01/06 05:12:34;;;;;;;3.22;0.40;;;15.50;96.10;;;;;;5072566;28;20036;-64
2023/01/06 05:15:00;;;;;;;1.52;0.35;;;15.50;96.20;;;;;;5072393;28;20028;-65
2023/01/06 05:17:25;;;;;;;1.77;0.30;;;15.40;96.20;;;;;;5072703;28;20029;-64
2023/01/06 05:19:51;;;;;;;1.08;0.32;;;15.40;96.30;;;;;;5072274;28;20040;-65
2023/01/06 05:22:17;;;;;;;2.72;0.40;;;15.50;96.20;;;;;;5072862;28;20020;-65
2023/01/06 05:24:42;;;;;;;1.08;0.30;;;15.40;96.10;;;;;;5072215;28;20493;-64
2023/01/06 05:27:08;;;;;;;1.65;0.35;;;15.40;96.30;;;;;;5072590;28;20024;-65
2023/01/06 05:29:34;;;;;;;0.70;0.17;;;15.40;96.50;;;;;;5072539;28;20123;-64
2023/01/06 05:32:00;;;;;;;1.92;0.45;;;15.40;96.60;;;;;;5072342;28;20515;-64
2023/01/06 05:34:26;;;;;;;1.48;0.25;;;15.40;96.50;;;;;;5072368;28;20021;-63
2023/01/06 05:36:51;;;;;;;1.40;0.43;;;15.40;96.70;;;;;;5072380;28;20515;-65
2023/01/06 05:39:17;;;;;;;1.45;0.55;;;15.50;96.30;;;;;;5071969;28;20521;-64
2023/01/06 05:41:43;;;;;;;1.85;0.60;;;15.50;96.30;;;;;;5072193;28;20654;-64
2023/01/06 05:44:08;;;;;;;1.63;0.43;;;15.40;96.40;;;;;;5072383;28;20036;-64
2023/01/06 05:46:34;;;;;;;2.17;0.32;;;15.40;96.80;;;;;;5072234;28;20025;-63
2023/01/06 05:49:00;;;;;;;1.77;0.30;;;15.40;96.60;;;;;;5072230;28;20108;-65
2023/01/06 05:51:26;;;;;;;1.40;0.32;;;15.30;96.90;;;;;;5072587;28;20070;-64
2023/01/06 05:53:52;;;;;;;0.93;0.40;;;15.30;96.70;;;;;;5071810;28;20382;-65
2023/01/06 05:56:19;;;;;;;1.38;0.22;;;15.20;96.80;;;;;;5069822;28;20524;-67
2023/01/06 05:58:47;;;;;;;1.13;0.40;;;15.30;97.00;;;;;;5065242;28;20033;-64
2023/01/06 06:01:25;;;;;;;9.20;1.48;;;15.30;96.90;;;;;;5063720;28;20021;-65
2023/01/06 06:03:51;;;;;;;3.50;1.35;;;15.30;95.90;;;;;;5060410;28;20429;-65
2023/01/06 06:06:18;;;;;;;1.77;0.22;;;15.20;95.00;;;;;;5070490;28;20028;-65
2023/01/06 06:08:44;;;;;;;1.35;0.40;;;15.40;95.50;;;;;;5070469;28;20024;-65
2023/01/06 06:11:12;;;;;;;1.27;0.30;;;15.40;95.50;;;;;;5069720;28;20096;-64
2023/01/06 06:13:38;;;;;;;1.92;0.20;;;15.20;95.40;;;;;;5068397;28;20179;-64
2023/01/06 06:16:09;;;;;;;0.95;0.20;;;15.30;95.50;;;;;;5071354;28;20029;-64
2023/01/06 06:18:41;;;;;;;0.60;0.17;;;15.30;95.10;;;;;;5071753;28;20041;-65
2023/01/06 06:21:11;;;;;;;0.43;0.20;;;15.50;95.80;;;;;;5071210;28;20031;-63
2023/01/06 06:23:37;;;;;;;1.50;0.15;;;15.50;95.60;;;;;;5068079;28;20087;-63
2023/01/06 06:26:03;;;;;;;0.93;0.40;;;15.50;95.80;;;;;;5075247;28;20127;-64
2023/01/06 06:28:32;;;;;;;0.75;0.20;;;15.40;95.60;;;;;;5075540;28;20640;-64
2023/01/06 06:31:13;;;;;;;1.75;0.40;;;15.50;95.70;;;;;;5073711;28;20032;-64
2023/01/06 06:33:39;;;;;;;0.45;0.10;;;15.40;95.80;;;;;;5075485;28;20020;-63
2023/01/06 06:36:10;;;;;;;3.60;0.30;;;15.50;96.10;;;;;;5075305;28;20437;-63
2023/01/06 06:38:36;;;;;;;0.40;0.10;;;15.40;95.80;;;;;;5072463;28;20025;-67
2023/01/06 06:41:02;;;;;;;1.40;0.20;;;15.40;95.80;;;;;;5071539;28;20085;-63
2023/01/06 06:43:28;;;;;;;0.28;0.05;;;15.40;95.80;;;;;;5063062;28;20116;-64
2023/01/06 06:45:53;;;;;;;0.90;0.15;;;15.40;95.90;;;;;;5063681;28;20043;-65
2023/01/06 06:48:19;;;;;;;1.15;0.25;;;15.40;96.00;;;;;;5069988;28;20058;-65
2023/01/06 06:50:45;;;;;;;0.60;0.20;;;15.40;96.30;;;;;;5068126;28;20493;-64
2023/01/06 06:53:10;;;;;;;0.77;0.30;;;15.30;96.30;;;;;;5074241;28;20508;-64
2023/01/06 06:55:36;;;;;;;0.50;0.03;;;15.40;96.40;;;;;;5075306;28;20362;-64
2023/01/06 06:58:01;;;;;;;1.58;0.35;;;15.40;96.30;;;;;;5065617;28;20025;-64
2023/01/06 07:00:27;;;;;;;1.45;0.10;;;15.50;96.70;;;;;;5073090;28;20063;-63
2023/01/06 07:02:52;;;;;;;4.18;0.68;;;15.50;96.60;;;;;;5074738;28;20017;-62
2023/01/06 07:05:18;;;;;;;1.80;0.30;;;15.50;97.10;;;;;;5074514;28;20466;-62
2023/01/06 07:07:44;;;;;;;4.13;0.38;;;15.60;99.90;;;;;;5070850;28;20024;-64
2023/01/06 07:10:13;;;;;;;0.93;0.20;;;15.60;99.60;;;;;;5074618;28;20487;-65
2023/01/06 07:12:39;;;;;;;0.77;0.10;;;15.60;99.60;;;;;;5074736;28;20013;-63
2023/01/06 07:15:05;;;;;;;6.35;0.32;;;15.70;99.70;;;;;;5068391;28;20409;-63
2023/01/06 07:17:30;;;;;;;1.00;0.20;;;15.70;99.60;;;;;;5074225;28;20032;-64
2023/01/06 07:19:56;;;;;;;0.73;0.20;;;15.80;99.40;;;;;;5073155;28;20116;-62
2023/01/06 07:22:21;;;;;;;1.17;0.22;;;15.70;99.40;;;;;;5073391;28;20119;-63
2023/01/06 07:24:47;;;;;;;2.50;0.20;;;15.80;99.50;;;;;;5073314;28;20482;-63
2023/01/06 07:27:12;;;;;;;1.65;0.10;;;15.80;99.60;;;;;;5073904;28;20055;-62
2023/01/06 07:29:38;;;;;;;3.20;0.30;;;15.80;99.60;;;;;;5071601;28;20021;-63
2023/01/06 07:32:04;;;;;;;1.35;0.20;;;15.80;99.40;;;;;;5073505;28;20119;-62
2023/01/06 07:34:30;;;;;;;1.63;0.20;;;15.80;99.50;;;;;;5072459;28;20035;-62
2023/01/06 07:36:56;;;;;;;3.03;0.30;;;15.80;99.80;;;;;;5074038;28;20028;-63
2023/01/06 07:39:21;;;;;;;2.20;0.20;;;15.80;99.90;;;;;;5074153;28;20040;-63
2023/01/06 07:41:47;;;;;;;2.33;0.25;;;15.80;99.90;;;;;;5074237;28;20074;-63
2023/01/06 07:44:12;;;;;;;0.80;0.40;;;15.80;99.90;;;;;;5074322;28;20081;-61
2023/01/06 07:46:38;;;;;;;0.63;0.25;;;15.80;99.70;;;;;;5073872;28;20024;-61
2023/01/06 07:49:03;;;;;;;1.20;0.10;;;15.70;99.90;;;;;;5073668;28;20442;-63
2023/01/06 07:51:29;;;;;;;1.08;0.10;;;15.70;99.90;;;;;;5074059;28;20495;-63
2023/01/06 07:53:54;;;;;;;3.17;0.40;;;15.70;99.90;;;;;;5073789;28;20493;-64
2023/01/06 07:56:20;;;;;;;1.05;0.20;;;15.70;99.80;;;;;;5073264;28;20020;-66
2023/01/06 07:58:46;;;;;;;1.00;0.30;;;15.70;99.90;;;;;;5072807;28;20046;-65
2023/01/06 08:01:12;;;;;;;1.52;0.32;;;15.70;99.90;;;;;;5073756;28;20496;-66
2023/01/06 08:03:38;;;;;;;0.70;0.30;;;15.70;99.90;;;;;;5073375;28;20466;-66
2023/01/06 08:06:11;;;;;;;0.47;0.10;;;15.60;99.70;;;;;;5073765;28;20031;-64
2023/01/06 08:08:38;;;;;;;1.45;0.30;;;15.70;99.70;;;;;;5073356;28;20086;-63
2023/01/06 08:11:06;;;;;;;1.58;0.20;;;15.60;99.50;;;;;;5073431;28;20520;-64
2023/01/06 08:13:32;;;;;;;1.10;0.28;;;15.60;99.70;;;;;;5073728;28;20376;-65
2023/01/06 08:15:58;;;;;;;0.80;0.20;;;15.50;99.90;;;;;;5073425;28;20362;-62
2023/01/06 08:18:24;;;;;;;1.30;0.30;;;15.60;99.90;;;;;;5073091;28;20040;-63
2023/01/06 08:20:49;;;;;;;1.30;0.28;;;15.60;99.90;;;;;;5073474;28;20412;-64
2023/01/06 08:23:15;;;;;;;1.38;0.30;;;15.50;99.90;;;;;;5073297;28;20036;-64
2023/01/06 08:25:40;;;;;;;0.90;0.30;;;15.50;99.90;;;;;;5073242;28;20024;-67
2023/01/06 08:28:06;;;;;;;2.30;0.22;;;15.50;99.90;;;;;;5072987;28;20029;-66
2023/01/06 08:30:38;;;;;;;1.35;0.20;;;15.60;99.90;;;;;;5073289;28;20077;-64
2023/01/06 08:33:04;;;;;;;1.50;0.20;;;15.60;99.90;;;;;;5072820;28;20131;-65
2023/01/06 08:35:29;;;;;;;1.02;0.10;;;15.70;99.90;;;;;;5073125;28;20544;-63
2023/01/06 08:37:55;;;;;;;2.30;0.30;;;15.70;99.90;;;;;;5072899;28;20024;-67
2023/01/06 08:40:21;;;;;;;1.73;0.28;;;15.70;99.90;;;;;;5073198;28;20077;-66
2023/01/06 08:42:46;;;;;;;2.50;0.63;;;15.50;99.90;;;;;;5073118;28;20024;-64
2023/01/06 08:45:12;;;;;;;0.80;0.20;;;15.50;99.90;;;;;;5072872;28;20036;-63
2023/01/06 08:47:38;;;;;;;1.80;0.30;;;15.60;99.90;;;;;;5072142;28;20021;-63
2023/01/06 08:50:03;;;;;;;1.95;0.28;;;15.70;99.90;;;;;;5073058;28;20024;-67
2023/01/06 08:52:29;;;;;;;1.80;0.30;;;15.60;99.90;;;;;;5071804;28;20034;-67
2023/01/06 08:54:54;;;;;;;1.98;0.38;;;15.60;99.90;;;;;;5072893;28;20016;-66
2023/01/06 08:57:20;;;;;;;1.05;0.17;;;15.50;99.90;;;;;;5072826;28;20067;-64
2023/01/06 08:59:46;;;;;;;1.25;0.47;;;15.40;99.90;;;;;;5072749;28;20367;-64
2023/01/06 09:02:11;;;;;;;1.63;0.85;;;15.50;99.90;;;;;;5072913;28;20071;-63
2023/01/06 09:04:37;;;;;;;2.42;0.80;;;15.20;99.80;;;;;;5072803;28;20032;-65
2023/01/06 09:07:02;;;;;;;1.58;0.63;;;15.20;99.90;;;;;;5072575;28;20025;-63
2023/01/06 09:09:28;;;;;;;4.00;0.50;;;15.10;99.70;;;;;;5072473;28;20389;-64
2023/01/06 09:11:54;;;;;;;2.50;0.55;;;15.20;99.60;;;;;;5072662;28;20446;-63
2023/01/06 09:14:19;;;;;;;1.65;0.60;;;15.40;99.50;;;;;;5072657;28;20024;-65
2023/01/06 09:16:47;;;;;;;2.60;0.30;;;15.30;99.70;;;;;;5072713;28;20025;-63
2023/01/06 09:19:13;;;;;;;2.47;0.57;;;15.40;99.90;;;;;;5072298;28;20040;-62
2023/01/06 09:21:41;;;;;;;2.65;0.60;;;15.40;99.90;;;;;;5072648;28;20025;-64
2023/01/06 09:24:11;;;;;;;1.45;0.30;;;15.40;99.80;;;;;;5072337;28;20025;-64
2023/01/06 09:26:37;;;;;;;1.08;0.20;;;15.40;99.90;;;;;;5072840;28;20082;-63
2023/01/06 09:29:02;;;;;;;1.67;0.47;;;15.50;99.90;;;;;;5072445;28;20029;-65
2023/01/06 09:31:28;;;;;;;2.80;0.40;;;15.40;99.90;;;;;;5072042;28;20035;-63
2023/01/06 09:33:54;;;;;;;2.17;0.77;;;15.50;99.90;;;;;;5072323;28;20097;-63
2023/01/06 09:36:20;;;;;;;1.67;0.70;;;15.50;99.90;;;;;;5072513;28;20432;-64
2023/01/06 09:38:45;;;;;;;3.35;1.13;;;15.50;99.90;;;;;;5072365;28;20397;-64
2023/01/06 09:41:33;;;;;;;1.15;0.47;;;15.40;99.90;;;;;;5072188;28;20493;-64
2023/01/06 09:44:11;;;;;;;1.40;0.30;;;15.50;99.90;;;;;;5072288;28;20079;-65
2023/01/06 09:46:41;;;;;;;1.70;0.20;;;15.50;99.90;;;;;;5070795;28;20025;-65
2023/01/06 09:49:32;;;;;;;1.10;0.20;;;15.60;99.90;;;;;;5072136;28;20024;-65
2023/01/06 09:52:08;;;;;;;1.95;0.40;;;15.70;99.90;;;;;;5072453;28;20489;-67
2023/01/06 09:54:44;;;;;;;3.17;1.10;;;15.60;99.90;;;;;;5072077;28;20105;-65
2023/01/06 09:57:15;;;;;;;2.88;0.57;;;15.60;99.90;;;;;;5070777;28;20028;-67
2023/01/06 10:00:04;;;;;;;2.10;0.40;;;15.60;99.90;;;;;;5074167;28;20064;-66
2023/01/06 10:02:37;;;;;;;2.75;0.68;;;15.60;99.90;;;;;;5075884;28;20499;-65
2023/01/06 10:05:23;;;;;;;3.30;0.75;;;15.50;99.90;;;;;;5075972;28;20390;-68
2023/01/06 10:07:52;;;;;;;3.83;1.00;;;15.60;99.90;;;;;;5064596;28;20032;-67
2023/01/06 10:10:37;;;;;;;4.70;1.13;;;15.50;99.90;;;;;;5075728;28;20016;-63
2023/01/06 10:13:24;;;;;;;6.43;1.23;;;15.50;99.80;;;;;;5074542;28;20441;-67
2023/01/06 10:16:04;;;;;;;3.58;0.70;;;15.50;99.90;;;;;;5075301;28;20496;-67
2023/01/06 10:18:41;;;;;;;3.17;0.95;;;15.50;99.90;;;;;;5075694;28;20091;-67
2023/01/06 10:21:26;;;;;;;4.05;1.00;;;15.60;99.90;;;;;;5075644;28;20111;-68
2023/01/06 10:24:27;;;;;;;3.22;0.80;;;15.50;99.90;;;;;;5075730;28;20024;-68
2023/01/06 10:26:57;;;;;;;4.18;0.93;;;15.50;99.90;;;;;;5053024;28;20029;-67
2023/01/06 10:29:28;;;;;;;2.95;0.70;;;15.40;99.90;;;;;;5071487;28;20029;-64
2023/01/06 10:31:55;;;;;;;3.33;0.90;;;15.50;99.90;;;;;;5075397;28;20064;-64
2023/01/06 10:34:23;;;;;;;3.25;0.88;;;15.60;99.90;;;;;;5075350;28;20051;-66
2023/01/06 10:37:16;;;;;;;5.43;1.65;;;15.50;99.90;;;;;;5075304;28;20074;-67
2023/01/06 10:39:44;;;;;;;5.05;1.17;;;15.50;99.90;;;;;;5075347;28;20119;-67
2023/01/06 10:42:57;;;;;;;3.88;1.17;;;15.50;99.60;;;;;;5073800;28;20142;-63
2023/01/06 10:45:35;;;;;;;2.45;1.15;;;15.50;99.60;;;;;;5075172;28;20028;-66
2023/01/06 10:48:03;;;;;;;5.70;1.45;;;15.50;99.90;;;;;;5075354;28;20050;-68
2023/01/06 10:50:29;;;;;;;3.60;0.88;;;15.40;99.60;;;;;;5075193;28;20082;-65
2023/01/06 10:52:54;;;;;;;5.10;1.45;;;15.50;99.60;;;;;;5075153;28;20021;-68
2023/01/06 10:55:40;;;;;;;5.80;1.60;;;15.50;99.40;;;;;;5074884;28;20370;-67
2023/01/06 10:58:15;;;;;;;7.05;1.20;;;15.30;99.40;;;;;;5070706;28;20059;-66
2023/01/06 11:00:58;;;;;;;4.85;1.00;;;15.50;99.60;;;;;;5075003;28;20032;-68
2023/01/06 11:03:25;;;;;;;3.20;1.10;;;15.50;99.40;;;;;;5075127;28;20029;-67
2023/01/06 11:06:13;;;;;;;6.43;1.23;;;15.50;99.30;;;;;;5075078;28;20544;-68
2023/01/06 11:08:38;;;;;;;4.22;1.52;;;15.30;99.30;;;;;;5074815;28;20028;-67
2023/01/06 11:11:10;;;;;;;2.35;1.02;;;15.20;99.00;;;;;;5074281;28;20477;-67
2023/01/06 11:13:38;;;;;;;2.63;0.90;;;15.20;99.40;;;;;;5074647;28;20028;-68
2023/01/06 11:16:16;;;;;;;3.08;1.00;;;15.40;99.80;;;;;;5075093;28;20052;-67
2023/01/06 11:18:42;;;;;;;3.97;1.20;;;15.40;99.70;;;;;;5074783;28;20099;-67
2023/01/06 11:21:10;;;;;;;2.85;1.10;;;15.40;99.70;;;;;;5074758;28;20476;-67
2023/01/06 11:23:38;;;;;;;4.07;1.25;;;15.40;99.60;;;;;;5074523;28;20063;-67
2023/01/06 11:26:05;;;;;;;4.00;1.10;;;15.30;99.50;;;;;;5074522;28;20025;-68
2023/01/06 11:28:31;;;;;;;4.13;0.82;;;15.30;99.90;;;;;;5072816;28;20102;-65
2023/01/06 11:31:09;;;;;;;2.30;0.60;;;15.50;99.90;;;;;;5074493;28;20083;-69
2023/01/06 11:33:46;;;;;;;4.15;1.30;;;15.60;99.90;;;;;;5074423;28;20425;-65
2023/01/06 11:36:13;;;;;;;3.38;0.90;;;15.60;99.90;;;;;;5074414;28;20032;-66
2023/01/06 11:38:45;;;;;;;4.55;1.13;;;15.60;99.90;;;;;;5074710;28;20217;-65
2023/01/06 11:41:15;;;;;;;4.20;1.20;;;15.60;99.90;;;;;;5074054;28;20037;-65
2023/01/06 11:43:44;;;;;;;2.63;1.30;;;15.50;99.60;;;;;;5073990;28;20025;-67
2023/01/06 11:46:12;;;;;;;11.68;1.52;;;15.50;99.80;;;;;;5074297;28;20381;-64
2023/01/06 11:48:59;;;;;;;4.63;1.55;;;15.40;99.20;;;;;;5073963;28;20056;-65
2023/01/06 11:51:39;;;;;;;9.07;3.00;;;15.40;99.20;;;;;;5073979;28;20081;-66
2023/01/06 11:54:23;;;;;;;5.53;1.50;;;15.40;98.90;;;;;;5074016;28;20032;-67
2023/01/06 11:57:23;;;;;;;5.22;1.35;;;15.40;99.40;;;;;;5072965;28;20024;-63
2023/01/06 12:00:20;;;;;;;3.95;1.08;;;15.60;99.80;;;;;;5061919;28;20075;-64
2023/01/06 12:02:50;;;;;;;3.85;1.02;;;15.60;99.40;;;;;;5073859;28;20099;-64
2023/01/06 12:05:27;;;;;;;5.07;1.30;;;15.50;99.50;;;;;;5073909;28;20033;-63
2023/01/06 12:07:56;;;;;;;4.13;1.40;;;15.40;99.40;;;;;;5073527;28;20099;-66
2023/01/06 12:10:26;;;;;;;6.10;1.60;;;15.30;99.00;;;;;;5073390;28;20032;-64
2023/01/06 12:12:52;;;;;;;2.78;1.10;;;15.10;99.10;;;;;;5073489;28;20024;-65
2023/01/06 12:15:18;;;;;;;3.08;1.10;;;15.10;99.20;;;;;;5073653;28;20028;-64
2023/01/06 12:18:03;;;;;;;4.65;1.10;;;15.20;99.30;;;;;;5073442;28;20035;-65
2023/01/06 12:20:40;;;;;;;3.60;1.13;;;15.30;99.60;;;;;;5073375;28;20032;-64
2023/01/06 12:23:13;;;;;;;6.35;1.90;;;15.30;99.50;;;;;;5072796;28;20118;-64
2023/01/06 12:25:46;;;;;;;6.25;2.58;;;15.20;99.50;;;;;;5073314;28;20024;-65
2023/01/06 12:28:26;;;;;;;4.85;1.50;;;15.10;99.60;;;;;;5073388;28;20025;-64
2023/01/06 12:31:04;;;;;;;4.03;1.73;;;15.40;99.60;;;;;;5073305;28;20033;-64
2023/01/06 12:33:59;;;;;;;4.63;1.52;;;15.40;99.60;;;;;;5071826;28;20025;-64
2023/01/06 12:36:39;;;;;;;2.80;0.93;;;15.40;99.80;;;;;;5056587;28;20056;-64
2023/01/06 12:39:31;;;;;;;6.55;1.38;;;15.50;99.90;;;;;;5072790;28;20481;-66
2023/01/06 12:42:10;;;;;;;2.35;1.20;;;15.50;99.90;;;;;;5068910;28;20060;-66
2023/01/06 12:45:01;;;;;;;5.22;1.40;;;15.60;99.90;;;;;;5072875;28;20032;-65
2023/01/06 12:47:33;;;;;;;3.92;1.13;;;15.60;99.90;;;;;;5073026;28;20025;-68
2023/01/06 12:50:16;;;;;;;3.10;1.10;;;15.60;99.70;;;;;;5073252;28;20016;-64
2023/01/06 12:53:05;;;;;;;1.65;0.73;;;15.50;99.80;;;;;;5073131;28;20270;-64
2023/01/06 12:55:36;;;;;;;3.03;1.10;;;15.50;99.90;;;;;;5072631;28;20044;-66
2023/01/06 12:58:17;;;;;;;3.27;0.73;;;15.60;99.90;;;;;;5072741;28;20028;-65
2023/01/06 13:01:01;;;;;;;2.50;0.70;;;15.60;99.90;;;;;;5072934;28;20268;-63
2023/01/06 13:03:45;;;;;;;5.32;1.23;;;15.70;99.90;;;;;;5073057;28;20024;-65
2023/01/06 13:06:38;;;;;;;2.72;1.10;;;15.70;99.90;;;;;;5071686;28;20028;-64
2023/01/06 13:09:18;;;;;;;;;;;15.60;99.90;;;;;;5071731;28;20504;-64
2023/01/06 13:12:13;;;;;;;3.60;0.90;;;15.50;99.50;;;;;;5069840;28;19915;-64
2023/01/06 13:15:13;;;;;;;3.03;0.90;;;15.60;99.80;;;;;;5068284;28;20067;-65
2023/01/06 13:17:52;;;;;;;1.92;0.70;;;15.60;99.90;;;;;;5071014;28;20054;-64